Time;durP1;ratioP1;P1;durP2;ratioP2;P2;SDS_P1;SDS_P2;PMS_P1;PMS_P2;Temp;Humidity;BMP_temperature;BMP_pressure;BME280_temperature;BME280_humidity;BME280_pressure;Samples;Min_cycle;Max_cycle;Signal;HPM_P1;HPM_P2
2021/03/30 00:02:10;;;;;;;2.85;1.02;;;10.50;49.20;;;;;;2357061;53;20962;-63
2021/03/30 00:04:36;;;;;;;2.42;1.00;;;10.50;49.10;;;;;;2359556;53;21409;-63
2021/03/30 00:07:03;;;;;;;5.75;1.20;;;10.50;49.30;;;;;;2361784;53;21022;-62
2021/03/30 00:09:29;;;;;;;1.83;0.68;;;10.40;49.20;;;;;;2353989;53;20905;-63
2021/03/30 00:11:55;;;;;;;1.85;0.88;;;10.40;49.20;;;;;;2617320;52;20941;-64
2021/03/30 00:14:21;;;;;;;2.28;0.80;;;10.30;49.20;;;;;;2350324;53;21021;-64
2021/03/30 00:16:58;;;;;;;2.85;1.00;;;10.30;49.20;;;;;;2350606;53;20921;-62
2021/03/30 00:19:25;;;;;;;1.85;0.70;;;10.30;49.20;;;;;;2596786;52;20999;-65
2021/03/30 00:21:52;;;;;;;2.03;0.70;;;10.30;49.30;;;;;;2365183;53;21362;-61
2021/03/30 00:24:18;;;;;;;2.08;0.90;;;10.20;49.30;;;;;;2594320;52;20869;-61
2021/03/30 00:26:44;;;;;;;2.20;0.90;;;10.20;49.30;;;;;;2366082;53;20882;-61
2021/03/30 00:29:11;;;;;;;2.15;0.93;;;10.10;49.30;;;;;;2365703;53;20954;-64
2021/03/30 00:31:37;;;;;;;2.20;0.98;;;10.10;49.30;;;;;;2350641;53;22371;-61
2021/03/30 00:34:03;;;;;;;2.92;1.30;;;10.10;49.50;;;;;;2365651;53;21722;-61
2021/03/30 00:36:29;;;;;;;2.30;1.00;;;10.10;49.60;;;;;;2367403;53;20953;-64
2021/03/30 00:38:56;;;;;;;2.28;0.90;;;10.00;49.70;;;;;;2595514;52;20929;-63
2021/03/30 00:41:22;;;;;;;2.05;0.95;;;10.00;49.70;;;;;;2365701;53;20893;-65
2021/03/30 00:43:49;;;;;;;2.12;1.00;;;9.90;50.50;;;;;;2365616;53;20921;-64
2021/03/30 00:46:16;;;;;;;3.42;1.02;;;9.90;50.60;;;;;;2360282;53;21018;-61
2021/03/30 00:48:45;;;;;;;3.05;1.20;;;9.90;50.80;;;;;;2350573;53;20997;-61
2021/03/30 00:51:13;;;;;;;2.05;0.90;;;9.90;50.80;;;;;;2360834;53;21010;-63
2021/03/30 00:53:39;;;;;;;2.28;1.02;;;9.80;50.80;;;;;;2351172;53;21487;-63
2021/03/30 00:56:05;;;;;;;2.50;0.90;;;9.80;50.70;;;;;;2366147;53;20940;-64
2021/03/30 00:58:32;;;;;;;4.00;1.00;;;9.80;50.80;;;;;;2365515;53;21032;-63
2021/03/30 01:00:58;;;;;;;2.03;1.08;;;9.80;50.80;;;;;;2354613;54;21003;-62
2021/03/30 01:03:24;;;;;;;2.35;1.05;;;9.70;50.80;;;;;;2606465;52;21177;-62
2021/03/30 01:05:51;;;;;;;3.15;0.93;;;9.70;50.90;;;;;;2363832;54;20889;-64
2021/03/30 01:08:53;;;;;;;3.20;1.20;;;9.60;50.80;;;;;;2354917;53;20954;-63
2021/03/30 01:15:09;;;;;;;3.20;0.85;;;9.60;50.80;;;;;;2352881;53;20966;-61
2021/03/30 01:18:04;;;;;;;2.30;0.80;;;9.60;50.60;;;;;;2362103;53;21025;-61
2021/03/30 01:21:08;;;;;;;2.53;0.90;;;9.50;50.70;;;;;;2359238;53;20986;-64
2021/03/30 01:23:55;;;;;;;2.30;0.90;;;9.50;50.80;;;;;;2364948;53;20942;-61
2021/03/30 01:33:10;;;;;;;2.53;0.98;;;9.40;50.80;;;;;;2348449;53;20992;-61
2021/03/30 01:35:37;;;;;;;1.65;0.80;;;9.30;50.60;;;;;;2588664;53;21135;-62
2021/03/30 01:38:04;;;;;;;1.58;0.68;;;9.30;50.90;;;;;;2346901;53;20971;-63
2021/03/30 01:40:33;;;;;;;2.08;0.85;;;9.20;51.00;;;;;;2326309;54;21060;-64
2021/03/30 01:43:02;;;;;;;2.78;1.02;;;9.20;51.10;;;;;;2348399;53;20948;-61
2021/03/30 01:45:31;;;;;;;2.60;1.00;;;9.10;51.20;;;;;;2587802;53;20960;-60
2021/03/30 01:47:58;;;;;;;1.83;0.77;;;9.10;51.20;;;;;;2365320;53;20929;-64
2021/03/30 01:50:25;;;;;;;1.73;0.88;;;9.10;51.30;;;;;;2370174;53;20942;-61
2021/03/30 01:52:51;;;;;;;1.30;0.70;;;9.10;51.40;;;;;;2589307;53;20951;-64
2021/03/30 01:55:18;;;;;;;1.83;0.90;;;9.00;51.40;;;;;;2326867;53;21047;-62
2021/03/30 01:57:50;;;;;;;3.08;1.10;;;9.00;51.40;;;;;;2600393;52;21615;-62
2021/03/30 02:00:17;;;;;;;1.62;0.73;;;9.00;51.50;;;;;;2338346;53;22034;-61
2021/03/30 02:02:47;;;;;;;3.05;0.82;;;8.90;51.40;;;;;;2369708;53;20950;-64
2021/03/30 02:05:15;;;;;;;1.95;0.90;;;8.90;51.50;;;;;;2622341;52;20953;-61
2021/03/30 02:07:41;;;;;;;2.05;0.93;;;8.90;51.50;;;;;;2622756;52;20918;-62
2021/03/30 02:10:14;;;;;;;3.05;1.20;;;8.90;51.60;;;;;;2353032;53;21072;-64
2021/03/30 02:12:44;;;;;;;3.00;1.05;;;8.90;51.70;;;;;;2612835;52;20954;-64
2021/03/30 02:15:12;;;;;;;2.72;0.90;;;8.80;51.60;;;;;;2369558;53;20946;-62
2021/03/30 02:21:10;;;;;;;2.30;0.90;;;8.80;51.70;;;;;;2361476;53;21086;-63
2021/03/30 02:23:39;;;;;;;2.20;0.80;;;8.80;51.50;;;;;;2369795;53;20958;-62
2021/03/30 02:26:07;;;;;;;2.50;0.90;;;8.70;51.60;;;;;;2369997;53;21573;-61
2021/03/30 02:28:57;;;;;;;1.80;0.90;;;8.70;51.70;;;;;;2366963;53;21003;-62
2021/03/30 02:31:28;;;;;;;2.42;0.80;;;8.70;51.80;;;;;;2358330;53;20946;-62
2021/03/30 02:33:56;;;;;;;2.03;0.82;;;8.60;51.80;;;;;;2351491;53;20988;-61
2021/03/30 02:36:23;;;;;;;2.22;0.95;;;8.60;51.80;;;;;;2372655;53;20929;-64
2021/03/30 02:38:50;;;;;;;2.00;0.90;;;8.60;51.90;;;;;;2364879;53;21030;-61
2021/03/30 02:41:16;;;;;;;2.17;1.00;;;8.60;52.00;;;;;;2356419;53;20941;-61
2021/03/30 02:43:43;;;;;;;2.60;1.08;;;8.60;52.10;;;;;;2594132;52;20928;-61
2021/03/30 02:46:10;;;;;;;2.67;1.00;;;8.50;52.10;;;;;;2370172;53;20942;-62
2021/03/30 02:48:38;;;;;;;2.40;1.10;;;8.50;52.10;;;;;;2607328;52;20975;-61
2021/03/30 02:51:05;;;;;;;3.50;1.20;;;8.50;52.20;;;;;;2356376;53;20967;-64
2021/03/30 02:53:32;;;;;;;3.03;1.15;;;8.50;52.20;;;;;;2601977;52;20933;-63
2021/03/30 02:56:00;;;;;;;2.75;0.82;;;8.50;52.30;;;;;;2369684;53;20953;-64
2021/03/30 02:58:30;;;;;;;2.37;0.95;;;8.50;52.30;;;;;;2342367;53;21092;-61
2021/03/30 03:00:56;;;;;;;2.15;0.90;;;8.50;52.30;;;;;;2585051;53;21011;-64
2021/03/30 03:03:22;;;;;;;2.30;0.90;;;8.50;52.30;;;;;;2566183;53;20996;-62
2021/03/30 03:05:50;;;;;;;2.78;1.12;;;8.40;52.30;;;;;;2342676;53;21889;-64
2021/03/30 03:08:16;;;;;;;2.60;1.20;;;8.40;52.30;;;;;;2342628;53;21790;-63
2021/03/30 03:10:42;;;;;;;2.45;1.05;;;8.40;52.40;;;;;;2338318;53;21027;-63
2021/03/30 03:13:14;;;;;;;2.85;1.17;;;8.40;52.40;;;;;;2341692;53;21920;-61
2021/03/30 03:15:41;;;;;;;2.25;1.10;;;8.40;52.40;;;;;;2357340;53;21774;-63
2021/03/30 03:18:08;;;;;;;2.55;0.88;;;8.30;52.30;;;;;;2595025;52;21442;-63
2021/03/30 03:20:34;;;;;;;2.90;1.30;;;8.30;52.40;;;;;;2344986;53;20935;-62
2021/03/30 03:23:01;;;;;;;3.03;1.00;;;8.30;52.40;;;;;;2357108;53;20962;-62
2021/03/30 03:25:28;;;;;;;1.85;0.85;;;8.30;52.50;;;;;;2350952;53;20979;-62
2021/03/30 03:27:54;;;;;;;1.90;0.80;;;8.30;52.50;;;;;;2370042;53;20926;-61
2021/03/30 03:30:25;;;;;;;2.50;1.02;;;8.20;52.40;;;;;;2356435;53;20983;-65
2021/03/30 03:32:51;;;;;;;2.80;0.95;;;8.20;52.50;;;;;;2345730;53;20946;-63
2021/03/30 03:35:18;;;;;;;2.40;1.00;;;8.20;52.50;;;;;;2370192;53;20962;-62
2021/03/30 03:37:45;;;;;;;3.28;1.08;;;8.20;52.60;;;;;;2616671;52;21408;-63
2021/03/30 03:40:12;;;;;;;2.65;1.00;;;8.10;52.50;;;;;;2370046;53;21081;-60
2021/03/30 03:42:38;;;;;;;3.00;1.10;;;8.10;52.60;;;;;;2350638;53;21065;-62
2021/03/30 03:45:06;;;;;;;2.22;0.88;;;8.10;52.60;;;;;;2369983;53;20966;-63
2021/03/30 03:47:32;;;;;;;2.95;1.20;;;8.10;52.60;;;;;;2588164;52;20967;-62
2021/03/30 03:50:01;;;;;;;1.67;0.88;;;8.10;52.60;;;;;;2353546;54;20959;-63
2021/03/30 03:52:52;;;;;;;2.75;1.23;;;8.00;52.60;;;;;;2333904;54;21060;-62
2021/03/30 03:55:19;;;;;;;4.15;1.30;;;8.00;52.70;;;;;;2370365;53;20956;-63
2021/03/30 03:57:59;;;;;;;2.70;1.00;;;8.00;52.70;;;;;;2356370;53;21413;-60
2021/03/30 04:00:28;;;;;;;3.53;1.12;;;7.90;52.70;;;;;;2618599;52;21085;-64
2021/03/30 04:03:01;;;;;;;2.75;1.20;;;7.90;52.70;;;;;;2622398;52;21887;-62
2021/03/30 04:08:05;;;;;;;2.37;1.05;;;7.90;52.70;;;;;;2622631;52;20930;-61
2021/03/30 04:10:33;;;;;;;3.15;1.20;;;7.90;52.60;;;;;;2370485;53;21041;-61
2021/03/30 04:13:06;;;;;;;3.47;1.30;;;7.80;52.70;;;;;;2352765;54;21011;-61
2021/03/30 04:15:32;;;;;;;2.95;1.20;;;7.80;52.70;;;;;;2592536;52;20972;-62
2021/03/30 04:17:59;;;;;;;3.22;1.40;;;7.80;52.80;;;;;;2352876;53;21536;-62
2021/03/30 04:20:25;;;;;;;4.25;1.30;;;7.80;52.90;;;;;;2348646;54;21803;-65
2021/03/30 04:22:55;;;;;;;2.65;1.20;;;7.70;52.90;;;;;;2360696;53;20947;-64
2021/03/30 04:25:22;;;;;;;2.50;1.10;;;7.70;53.00;;;;;;2347893;53;20957;-61
2021/03/30 04:27:49;;;;;;;4.68;1.30;;;7.70;53.00;;;;;;2365668;53;20962;-64
2021/03/30 04:30:19;;;;;;;2.70;1.30;;;7.70;53.10;;;;;;2349993;53;20946;-60
2021/03/30 04:32:47;;;;;;;2.55;1.30;;;7.70;53.10;;;;;;2369930;53;20946;-62
2021/03/30 04:35:14;;;;;;;3.00;1.45;;;7.70;53.20;;;;;;2370193;53;20910;-63
2021/03/30 04:37:40;;;;;;;3.17;1.48;;;7.70;53.20;;;;;;2622745;52;20911;-62
2021/03/30 04:40:10;;;;;;;3.58;1.37;;;7.60;53.20;;;;;;2622020;52;20997;-62
2021/03/30 04:42:37;;;;;;;2.58;1.12;;;7.60;53.30;;;;;;2358132;53;20975;-63
2021/03/30 04:45:23;;;;;;;4.18;1.67;;;7.60;53.30;;;;;;2361404;53;20951;-63
2021/03/30 04:47:49;;;;;;;2.50;1.20;;;7.60;53.40;;;;;;2368368;53;20946;-63
2021/03/30 04:50:16;;;;;;;2.60;1.30;;;7.60;53.40;;;;;;2350259;54;20956;-61
2021/03/30 04:52:42;;;;;;;2.75;1.30;;;7.60;53.40;;;;;;2362418;53;20937;-61
2021/03/30 04:55:10;;;;;;;2.75;1.42;;;7.60;53.40;;;;;;2606188;52;21005;-63
2021/03/30 04:57:36;;;;;;;2.67;1.15;;;7.60;53.50;;;;;;2369841;53;20961;-64
2021/03/30 05:00:05;;;;;;;3.17;1.42;;;7.50;53.30;;;;;;2597063;52;21007;-61
2021/03/30 05:02:33;;;;;;;3.50;1.30;;;7.50;53.40;;;;;;2583898;53;21028;-61
2021/03/30 05:04:59;;;;;;;2.80;1.20;;;7.50;53.40;;;;;;2354952;53;21004;-62
2021/03/30 05:07:25;;;;;;;2.75;1.33;;;7.50;53.40;;;;;;2370149;53;21017;-62
2021/03/30 05:09:53;;;;;;;3.22;1.40;;;7.50;53.40;;;;;;2594159;52;21301;-62
2021/03/30 05:12:19;;;;;;;3.10;1.30;;;7.40;53.40;;;;;;2368030;53;20975;-60
2021/03/30 05:14:46;;;;;;;3.53;1.62;;;7.40;53.40;;;;;;2353121;53;20951;-61
2021/03/30 05:17:14;;;;;;;2.97;1.33;;;7.40;53.50;;;;;;2370061;53;20929;-62
2021/03/30 05:19:41;;;;;;;3.55;1.45;;;7.40;53.60;;;;;;2618521;52;21012;-63
2021/03/30 05:22:07;;;;;;;3.70;1.75;;;7.40;53.60;;;;;;2348794;53;21052;-61
2021/03/30 05:24:38;;;;;;;2.95;1.33;;;7.40;53.70;;;;;;2622473;52;20974;-61
2021/03/30 05:27:05;;;;;;;3.03;1.42;;;7.40;53.70;;;;;;2369767;53;21034;-62
2021/03/30 05:29:42;;;;;;;2.97;1.55;;;7.30;53.70;;;;;;2622377;52;21014;-62
2021/03/30 05:32:18;;;;;;;3.12;1.60;;;7.30;53.80;;;;;;2352744;54;20979;-62
2021/03/30 05:34:49;;;;;;;4.47;2.12;;;7.30;53.80;;;;;;2594631;52;21102;-61
2021/03/30 05:37:18;;;;;;;2.50;1.25;;;7.30;53.80;;;;;;2349190;53;20918;-61
2021/03/30 05:39:44;;;;;;;4.75;1.20;;;7.30;53.80;;;;;;2621945;52;21750;-62
2021/03/30 05:42:15;;;;;;;3.22;1.12;;;7.30;53.90;;;;;;2368992;53;21435;-65
2021/03/30 05:44:43;;;;;;;3.78;1.17;;;7.30;54.50;;;;;;2622076;52;21007;-62
2021/03/30 05:47:15;;;;;;;5.57;1.33;;;7.30;53.90;;;;;;2622398;52;20922;-63
2021/03/30 05:49:43;;;;;;;2.33;1.00;;;7.30;54.00;;;;;;2622714;52;20958;-61
2021/03/30 05:52:19;;;;;;;2.55;1.37;;;7.40;54.10;;;;;;2341365;53;21857;-64
2021/03/30 05:54:47;;;;;;;2.95;1.30;;;7.40;54.20;;;;;;2361848;53;21058;-62
2021/03/30 05:57:15;;;;;;;4.57;1.50;;;7.40;54.20;;;;;;2350739;53;20926;-63
2021/03/30 05:59:44;;;;;;;3.33;1.30;;;7.40;54.30;;;;;;2369387;53;20918;-62
2021/03/30 06:02:25;;;;;;;5.10;1.62;;;7.40;54.30;;;;;;2358134;53;20908;-62
2021/03/30 06:04:56;;;;;;;4.10;1.95;;;7.40;54.40;;;;;;2326722;54;21012;-63
2021/03/30 06:07:22;;;;;;;3.22;1.40;;;7.50;54.50;;;;;;2372620;53;20969;-64
2021/03/30 06:09:49;;;;;;;3.65;1.80;;;7.50;54.60;;;;;;2621952;52;21005;-61
2021/03/30 06:12:17;;;;;;;4.40;1.83;;;7.50;54.70;;;;;;2350248;53;21357;-61
2021/03/30 06:14:45;;;;;;;3.30;1.75;;;7.50;54.80;;;;;;2598087;52;21743;-63
2021/03/30 06:17:15;;;;;;;4.25;1.55;;;7.60;54.90;;;;;;2370247;53;20942;-61
2021/03/30 06:20:06;;;;;;;4.65;1.90;;;7.60;55.00;;;;;;2604497;52;21331;-63
2021/03/30 06:22:50;;;;;;;3.53;1.70;;;7.60;55.10;;;;;;2363330;53;20981;-62
2021/03/30 06:25:56;;;;;;;8.48;1.60;;;7.70;55.20;;;;;;2360154;53;21499;-62
2021/03/30 06:28:30;;;;;;;3.70;1.45;;;7.70;55.30;;;;;;2360995;53;20986;-62
2021/03/30 06:31:08;;;;;;;3.62;1.92;;;7.80;55.40;;;;;;2350598;53;20964;-62
2021/03/30 06:34:15;;;;;;;4.47;1.73;;;7.90;55.70;;;;;;2338574;53;21058;-61
2021/03/30 06:36:43;;;;;;;3.58;1.65;;;8.00;55.70;;;;;;2619452;52;21496;-65
2021/03/30 06:39:10;;;;;;;3.92;1.70;;;8.10;56.00;;;;;;2343945;53;20958;-64
2021/03/30 06:41:50;;;;;;;3.35;1.62;;;8.20;56.20;;;;;;2598683;52;21623;-63
2021/03/30 06:44:27;;;;;;;4.62;1.95;;;8.30;58.10;;;;;;2363037;53;21786;-61
2021/03/30 06:47:14;;;;;;;3.78;1.73;;;8.70;60.50;;;;;;2368581;53;21633;-63
2021/03/30 06:50:03;;;;;;;4.35;2.20;;;9.20;62.60;;;;;;2350244;53;20961;-62
2021/03/30 06:52:42;;;;;;;4.00;1.83;;;9.90;62.90;;;;;;2620520;52;21061;-61
2021/03/30 06:55:12;;;;;;;3.60;1.70;;;10.30;61.10;;;;;;2372068;53;20966;-62
2021/03/30 06:57:44;;;;;;;7.75;2.50;;;10.80;60.60;;;;;;2356665;53;21063;-62
2021/03/30 07:00:52;;;;;;;5.78;2.30;;;11.10;59.00;;;;;;2345816;53;21643;-62
2021/03/30 07:03:20;;;;;;;5.97;2.92;;;11.30;57.60;;;;;;2361122;53;21454;-65
2021/03/30 07:05:51;;;;;;;6.05;3.45;;;11.50;57.60;;;;;;2358003;53;21050;-65
2021/03/30 07:08:20;;;;;;;6.50;3.10;;;11.60;57.10;;;;;;2351399;53;21078;-62
2021/03/30 07:10:48;;;;;;;5.90;2.70;;;11.70;56.70;;;;;;2576984;52;21543;-63
2021/03/30 07:13:16;;;;;;;4.30;2.10;;;11.80;56.40;;;;;;2369413;53;20998;-62
2021/03/30 07:15:43;;;;;;;4.22;1.90;;;11.90;56.20;;;;;;2367262;53;20921;-64
2021/03/30 07:18:52;;;;;;;4.10;1.92;;;11.90;56.00;;;;;;2572056;53;21689;-63
2021/03/30 07:21:53;;;;;;;3.65;1.50;;;12.00;55.60;;;;;;2365669;53;20946;-62
2021/03/30 07:24:23;;;;;;;4.03;1.77;;;12.10;55.90;;;;;;2595297;52;20948;-62
2021/03/30 07:26:59;;;;;;;5.93;1.77;;;12.20;56.40;;;;;;2366283;53;21026;-62
2021/03/30 07:29:30;;;;;;;3.95;1.67;;;12.20;56.00;;;;;;2623781;52;20918;-65
2021/03/30 07:32:07;;;;;;;3.92;1.70;;;12.40;56.80;;;;;;2369972;53;21809;-64
2021/03/30 07:38:10;;;;;;;5.32;1.40;;;12.60;57.80;;;;;;2354058;53;20931;-63
2021/03/30 07:40:41;;;;;;;3.97;1.45;;;12.90;58.30;;;;;;2370602;53;21010;-63
2021/03/30 07:43:08;;;;;;;3.42;1.15;;;13.60;58.30;;;;;;2620832;52;21451;-63
2021/03/30 07:45:36;;;;;;;2.92;1.27;;;13.90;58.10;;;;;;2353360;53;21794;-61
2021/03/30 07:48:04;;;;;;;4.62;1.52;;;14.00;57.30;;;;;;2369095;53;21367;-64
2021/03/30 07:51:11;;;;;;;3.87;1.27;;;14.30;56.80;;;;;;2370470;53;20938;-63
2021/03/30 07:53:53;;;;;;;4.07;1.58;;;14.50;56.20;;;;;;2358373;53;20991;-65
2021/03/30 07:57:02;;;;;;;3.40;1.33;;;14.80;56.30;;;;;;2362315;53;20999;-63
2021/03/30 07:59:45;;;;;;;3.62;1.80;;;14.90;55.50;;;;;;2607130;52;21416;-64
2021/03/30 08:02:18;;;;;;;3.22;1.30;;;15.10;56.30;;;;;;2328290;54;20964;-65
2021/03/30 08:05:13;;;;;;;3.50;1.30;;;15.30;56.20;;;;;;2330688;54;20998;-65
2021/03/30 08:08:02;;;;;;;3.80;1.27;;;15.60;55.30;;;;;;2617152;52;20962;-64
2021/03/30 08:10:36;;;;;;;3.30;1.33;;;15.80;55.90;;;;;;2368625;53;20985;-63
2021/03/30 08:13:33;;;;;;;3.65;1.30;;;16.10;56.30;;;;;;2368693;53;21799;-68
2021/03/30 08:16:07;;;;;;;4.60;1.58;;;16.50;56.30;;;;;;2604332;52;21796;-64
2021/03/30 08:18:35;;;;;;;5.30;1.02;;;16.90;57.40;;;;;;2358419;53;20918;-63
2021/03/30 08:21:15;;;;;;;3.17;1.27;;;17.30;58.20;;;;;;2353372;53;21003;-64
2021/03/30 08:25:35;;;;;;;2.95;1.42;;;17.80;57.80;;;;;;2355303;53;20951;-65
2021/03/30 08:28:02;;;;;;;3.50;1.40;;;18.60;57.10;;;;;;2370443;53;21001;-65
2021/03/30 08:31:14;;;;;;;4.68;1.80;;;19.10;60.10;;;;;;2357269;53;21440;-64
2021/03/30 08:33:40;;;;;;;3.50;1.50;;;19.80;57.20;;;;;;2371177;53;20957;-65
2021/03/30 08:36:32;;;;;;;4.25;1.77;;;20.20;59.00;;;;;;2623835;52;20950;-70
2021/03/30 08:39:00;;;;;;;5.50;1.50;;;20.60;56.00;;;;;;2371223;53;20934;-68
2021/03/30 08:45:05;;;;;;;4.28;1.62;;;21.00;57.90;;;;;;2371505;53;20918;-66
2021/03/30 08:47:43;;;;;;;5.28;1.55;;;21.90;56.20;;;;;;2356713;53;20924;-67
2021/03/30 08:50:26;;;;;;;3.05;1.70;;;22.20;57.90;;;;;;2351940;53;21003;-70
2021/03/30 08:52:53;;;;;;;3.28;1.50;;;22.60;57.20;;;;;;2594163;52;20914;-66
2021/03/30 08:55:35;;;;;;;3.40;1.65;;;22.90;57.60;;;;;;2371284;53;21303;-65
2021/03/30 08:58:01;;;;;;;3.55;1.40;;;23.30;56.20;;;;;;2361459;53;21004;-67
2021/03/30 09:00:28;;;;;;;3.92;1.73;;;23.70;57.90;;;;;;2360830;53;21391;-67
2021/03/30 09:02:59;;;;;;;3.50;1.80;;;24.10;57.40;;;;;;2370025;53;20934;-66
2021/03/30 09:05:25;;;;;;;3.47;1.50;;;24.40;55.80;;;;;;2611180;52;21507;-65
2021/03/30 09:07:51;;;;;;;2.90;1.25;;;24.80;56.30;;;;;;2358059;53;20961;-63
2021/03/30 09:10:18;;;;;;;2.70;1.33;;;25.20;55.90;;;;;;2623598;52;20904;-65
2021/03/30 09:12:46;;;;;;;2.92;1.33;;;25.60;55.60;;;;;;2366161;53;21058;-64
2021/03/30 09:15:14;;;;;;;4.22;1.58;;;25.90;54.90;;;;;;2343289;54;20963;-64
2021/03/30 09:18:00;;;;;;;2.92;1.30;;;26.30;54.40;;;;;;2342568;53;20940;-66
2021/03/30 09:20:32;;;;;;;2.58;1.30;;;26.60;51.10;;;;;;2609169;52;20947;-64
2021/03/30 09:23:13;;;;;;;3.83;1.40;;;26.90;53.10;;;;;;2562058;53;21020;-65
2021/03/30 09:25:44;;;;;;;2.85;1.40;;;27.10;52.30;;;;;;2325320;54;21799;-65
2021/03/30 09:28:16;;;;;;;4.37;1.27;;;27.30;51.40;;;;;;2334502;54;20979;-64
2021/03/30 09:30:43;;;;;;;3.10;1.40;;;27.50;49.80;;;;;;2351901;53;20962;-65
2021/03/30 09:33:10;;;;;;;4.25;1.52;;;27.70;50.30;;;;;;2602777;52;20938;-64
2021/03/30 09:35:37;;;;;;;3.10;1.30;;;27.80;49.50;;;;;;2364297;53;21041;-62
2021/03/30 09:38:06;;;;;;;3.70;1.37;;;27.80;49.00;;;;;;2438112;53;1774540;-64
2021/03/30 09:40:41;;;;;;;3.12;1.40;;;27.90;48.50;;;;;;2365853;53;20909;-62
2021/03/30 09:43:12;;;;;;;3.22;1.30;;;28.00;47.80;;;;;;2366759;53;20914;-65
2021/03/30 09:45:39;;;;;;;3.85;1.27;;;28.00;47.20;;;;;;2366323;53;20949;-66
2021/03/30 09:48:13;;;;;;;3.05;1.50;;;28.00;46.60;;;;;;2365225;53;21034;-64
2021/03/30 09:50:45;;;;;;;2.60;1.30;;;28.00;45.70;;;;;;2353526;53;21474;-63
2021/03/30 09:53:11;;;;;;;2.85;1.20;;;28.10;45.40;;;;;;2365955;53;21395;-64
2021/03/30 09:55:47;;;;;;;2.75;1.25;;;28.00;45.90;;;;;;2366304;53;20918;-64
2021/03/30 09:58:17;;;;;;;3.53;1.67;;;28.00;44.60;;;;;;2366716;53;20933;-62
2021/03/30 10:00:48;;;;;;;3.33;1.50;;;28.10;45.60;;;;;;2366936;53;20941;-66
2021/03/30 10:03:16;;;;;;;3.55;1.20;;;28.10;45.10;;;;;;2367066;53;20889;-67
2021/03/30 10:05:43;;;;;;;2.95;1.45;;;28.20;45.40;;;;;;2366961;53;20981;-63
2021/03/30 10:08:32;;;;;;;3.97;1.45;;;28.30;45.20;;;;;;2595605;52;20994;-67
2021/03/30 10:10:59;;;;;;;2.60;1.30;;;28.30;42.50;;;;;;2589559;53;21024;-64
2021/03/30 10:13:30;;;;;;;2.72;1.37;;;28.30;44.50;;;;;;2358935;53;20953;-66
2021/03/30 10:16:00;;;;;;;3.67;1.30;;;28.30;43.10;;;;;;2366524;53;20913;-64
2021/03/30 10:18:27;;;;;;;3.20;1.20;;;28.20;43.00;;;;;;2596814;52;20990;-64
2021/03/30 10:21:11;;;;;;;2.97;1.17;;;28.00;42.50;;;;;;2351998;53;21902;-63
2021/03/30 10:23:52;;;;;;;2.78;1.25;;;27.90;42.00;;;;;;2352216;53;20926;-63
2021/03/30 10:26:26;;;;;;;2.95;1.27;;;27.80;41.60;;;;;;2367118;53;21649;-64
2021/03/30 10:28:54;;;;;;;4.03;1.37;;;27.80;42.80;;;;;;2366155;53;20993;-63
2021/03/30 10:34:30;;;;;;;4.10;1.70;;;27.70;40.60;;;;;;2366339;53;20905;-63
2021/03/30 10:37:02;;;;;;;4.25;1.75;;;27.70;41.50;;;;;;2367902;53;21004;-65
2021/03/30 10:39:38;;;;;;;5.07;1.30;;;27.60;42.30;;;;;;2347016;53;21308;-64
2021/03/30 10:42:18;;;;;;;3.28;1.10;;;27.50;41.60;;;;;;2328511;54;20963;-64
2021/03/30 10:44:55;;;;;;;3.25;1.65;;;27.50;41.40;;;;;;2321868;54;21074;-65
2021/03/30 10:47:23;;;;;;;3.50;1.40;;;27.40;41.90;;;;;;2580083;52;20933;-65
2021/03/30 10:49:51;;;;;;;3.00;1.60;;;27.30;41.80;;;;;;2555285;53;21317;-64
2021/03/30 10:52:20;;;;;;;3.20;1.40;;;27.30;42.20;;;;;;2326847;54;21011;-64
2021/03/30 10:54:48;;;;;;;3.03;1.40;;;27.20;41.60;;;;;;2319963;54;20953;-64
2021/03/30 10:57:16;;;;;;;2.60;1.08;;;27.20;41.50;;;;;;2335566;53;21069;-64
2021/03/30 10:59:45;;;;;;;2.62;1.08;;;27.10;41.90;;;;;;2335106;53;20931;-63
2021/03/30 11:02:12;;;;;;;2.40;1.08;;;27.10;41.10;;;;;;2335947;53;21544;-64
2021/03/30 11:04:41;;;;;;;2.28;1.08;;;27.10;41.50;;;;;;2340418;53;21403;-64
2021/03/30 11:07:07;;;;;;;2.70;1.30;;;27.00;41.40;;;;;;2343826;53;21859;-64
2021/03/30 11:09:34;;;;;;;2.85;1.17;;;27.10;41.40;;;;;;2594566;52;20974;-63
2021/03/30 11:12:01;;;;;;;2.60;1.12;;;27.10;41.40;;;;;;2582503;53;21064;-67
2021/03/30 11:14:27;;;;;;;3.50;1.10;;;27.00;41.20;;;;;;2335224;53;20913;-65
2021/03/30 11:16:54;;;;;;;3.60;1.30;;;27.00;40.90;;;;;;2581375;53;21014;-65
2021/03/30 11:19:21;;;;;;;3.62;1.40;;;27.10;40.80;;;;;;2328066;53;21281;-65
2021/03/30 11:21:48;;;;;;;3.83;1.48;;;27.00;40.80;;;;;;2333784;54;21660;-65
2021/03/30 11:24:18;;;;;;;2.60;1.10;;;27.10;41.30;;;;;;2332783;53;21021;-64
2021/03/30 11:26:48;;;;;;;3.03;1.20;;;27.00;40.40;;;;;;2540552;53;20941;-63
2021/03/30 11:29:38;;;;;;;2.65;1.00;;;27.00;40.90;;;;;;2332898;53;21560;-66
2021/03/30 11:36:13;;;;;;;3.85;1.20;;;27.10;41.30;;;;;;2337750;54;20913;-63
2021/03/30 11:38:40;;;;;;;3.90;1.50;;;27.30;42.50;;;;;;2356682;53;22089;-63
2021/03/30 11:41:08;;;;;;;2.90;1.37;;;27.40;42.00;;;;;;2339989;53;21002;-64
2021/03/30 11:43:34;;;;;;;4.00;1.85;;;27.50;41.80;;;;;;2347677;53;21580;-65
2021/03/30 11:46:02;;;;;;;3.15;1.27;;;27.60;41.80;;;;;;2349713;53;20949;-63
2021/03/30 11:48:28;;;;;;;2.83;1.17;;;27.70;41.70;;;;;;2352540;53;20921;-64
2021/03/30 11:50:55;;;;;;;4.10;1.50;;;27.80;41.70;;;;;;2611631;52;21512;-65
2021/03/30 11:53:21;;;;;;;4.50;1.58;;;27.90;42.10;;;;;;2603383;52;21038;-64
2021/03/30 11:55:49;;;;;;;3.97;1.55;;;28.10;42.10;;;;;;2581528;53;20992;-64
2021/03/30 11:58:16;;;;;;;3.00;1.30;;;28.20;42.10;;;;;;2356061;53;20890;-63
2021/03/30 12:00:45;;;;;;;2.58;1.37;;;28.40;42.20;;;;;;2616469;52;20910;-64
2021/03/30 12:03:12;;;;;;;4.28;1.65;;;28.60;42.10;;;;;;2332335;53;21868;-65
2021/03/30 12:05:39;;;;;;;2.95;1.33;;;28.60;41.40;;;;;;2364276;53;20874;-64
2021/03/30 12:08:07;;;;;;;3.65;1.58;;;28.80;41.20;;;;;;2616336;52;22146;-66
2021/03/30 12:10:34;;;;;;;3.37;1.33;;;28.90;40.90;;;;;;2365073;53;20941;-64
2021/03/30 12:13:01;;;;;;;3.72;1.50;;;28.90;41.10;;;;;;2365153;53;20912;-63
2021/03/30 12:15:28;;;;;;;3.10;1.40;;;29.10;41.20;;;;;;2364556;53;20952;-64
2021/03/30 12:17:54;;;;;;;2.92;1.40;;;29.10;41.30;;;;;;2366846;53;20937;-64
2021/03/30 12:20:21;;;;;;;2.95;1.65;;;29.30;41.20;;;;;;2346524;53;20949;-66
2021/03/30 12:22:47;;;;;;;3.65;1.60;;;29.30;40.80;;;;;;2363434;53;20913;-67
2021/03/30 12:25:13;;;;;;;3.37;1.70;;;29.40;40.50;;;;;;2607313;52;21506;-64
2021/03/30 12:27:40;;;;;;;3.10;1.45;;;29.40;40.30;;;;;;2345885;53;21013;-63
2021/03/30 12:30:07;;;;;;;3.85;1.65;;;29.50;40.10;;;;;;2611534;52;20922;-64
2021/03/30 12:32:33;;;;;;;4.43;1.90;;;29.50;39.70;;;;;;2611607;52;20954;-64
2021/03/30 12:35:02;;;;;;;3.60;1.40;;;29.50;39.50;;;;;;2347564;53;20942;-64
2021/03/30 12:37:32;;;;;;;3.10;1.52;;;29.50;39.20;;;;;;2358570;53;21383;-63
2021/03/30 12:39:58;;;;;;;3.10;1.58;;;29.50;39.10;;;;;;2361454;53;20937;-64
2021/03/30 12:42:25;;;;;;;3.05;1.33;;;29.60;39.20;;;;;;2359914;53;20929;-64
2021/03/30 12:44:53;;;;;;;3.87;1.60;;;29.50;38.50;;;;;;2584113;52;20927;-64
2021/03/30 12:47:21;;;;;;;3.45;1.50;;;29.50;38.00;;;;;;2363417;53;20937;-66
2021/03/30 12:49:49;;;;;;;3.00;1.30;;;29.40;38.00;;;;;;2582990;53;21051;-64
2021/03/30 12:52:17;;;;;;;3.58;1.60;;;29.40;38.00;;;;;;2339455;54;20934;-65
2021/03/30 12:54:43;;;;;;;2.65;1.00;;;29.30;37.60;;;;;;2348102;53;21497;-65
2021/03/30 12:57:10;;;;;;;3.28;1.40;;;29.30;37.70;;;;;;2616349;52;21520;-64
2021/03/30 12:59:38;;;;;;;2.15;1.00;;;29.30;37.60;;;;;;2358169;53;21030;-64
2021/03/30 13:02:05;;;;;;;3.15;1.20;;;29.30;37.50;;;;;;2354441;53;20942;-64
2021/03/30 13:04:31;;;;;;;5.72;1.42;;;29.20;37.50;;;;;;2366621;53;20937;-63
2021/03/30 13:06:57;;;;;;;3.42;1.33;;;29.20;37.10;;;;;;2594966;52;21447;-64
2021/03/30 13:09:28;;;;;;;3.17;1.42;;;29.10;36.90;;;;;;2353141;53;20990;-64
2021/03/30 13:11:55;;;;;;;3.50;1.52;;;29.10;36.80;;;;;;2370470;53;20929;-64
2021/03/30 13:14:22;;;;;;;3.03;1.52;;;29.00;37.10;;;;;;2594615;52;20938;-63
2021/03/30 13:16:48;;;;;;;3.62;1.58;;;28.90;37.30;;;;;;2561705;53;21019;-64
2021/03/30 13:19:14;;;;;;;2.53;1.20;;;28.90;37.50;;;;;;2343288;53;20929;-64
2021/03/30 13:21:57;;;;;;;4.07;1.45;;;28.80;38.30;;;;;;2339926;53;20911;-66
2021/03/30 13:24:25;;;;;;;3.20;1.52;;;28.80;37.80;;;;;;2333211;53;20975;-65
2021/03/30 13:26:54;;;;;;;3.35;1.60;;;28.70;37.80;;;;;;2319836;55;20964;-64
2021/03/30 13:29:21;;;;;;;5.80;1.67;;;28.70;37.50;;;;;;2585240;52;21400;-65
2021/03/30 13:31:48;;;;;;;3.10;1.50;;;28.60;37.70;;;;;;2336403;53;21009;-66
2021/03/30 13:34:15;;;;;;;3.70;1.62;;;28.60;37.70;;;;;;2586434;52;20969;-65
2021/03/30 13:36:48;;;;;;;2.85;1.45;;;28.50;37.50;;;;;;2341011;53;20959;-63
2021/03/30 13:39:16;;;;;;;3.00;1.60;;;28.40;37.50;;;;;;2580248;53;20944;-65
2021/03/30 13:41:54;;;;;;;3.80;1.52;;;28.30;37.00;;;;;;2583838;52;20904;-64
2021/03/30 13:44:24;;;;;;;3.50;1.83;;;28.20;37.10;;;;;;2338503;53;21714;-63